createdAt,value
2018-02-27T00:00:28.090Z,6.40
2018-02-27T00:01:30.622Z,6.28
2018-02-27T00:02:33.152Z,6.18
2018-02-27T00:03:35.735Z,5.85
2018-02-27T00:04:38.245Z,6.03
2018-02-27T00:05:41.542Z,6.55
2018-02-27T00:06:44.856Z,6.87
2018-02-27T00:07:47.373Z,6.70
2018-02-27T00:08:50.702Z,6.40
2018-02-27T00:09:53.220Z,6.70
2018-02-27T00:10:55.740Z,6.45
2018-02-27T00:11:58.257Z,6.15
2018-02-27T00:13:01.555Z,6.50
2018-02-27T00:14:04.873Z,6.25
2018-02-27T00:15:08.170Z,6.85
2018-02-27T00:16:10.703Z,6.55
2018-02-27T00:17:13.274Z,6.80
2018-02-27T00:18:15.792Z,6.45
2018-02-27T00:19:18.382Z,7.00
2018-02-27T00:20:21.681Z,6.57
2018-02-27T00:21:24.972Z,6.65
2018-02-27T00:22:27.677Z,6.47
2018-02-27T00:23:30.197Z,5.70
2018-02-27T00:24:32.754Z,5.90
2018-02-27T00:25:36.041Z,6.05
2018-02-27T00:26:38.568Z,6.45
2018-02-27T00:27:41.092Z,6.47
2018-02-27T00:28:43.613Z,7.12
2018-02-27T00:29:46.170Z,6.50
2018-02-27T00:30:48.685Z,6.60
2018-02-27T00:31:51.209Z,6.53
2018-02-27T00:32:53.730Z,5.70
2018-02-27T00:33:56.265Z,6.12
2018-02-27T00:34:59.586Z,6.50
2018-02-27T00:36:02.105Z,7.00
2018-02-27T00:37:07.320Z,5.70
2018-02-27T00:38:09.846Z,6.35
2018-02-27T00:39:12.370Z,6.72
2018-02-27T00:40:15.711Z,6.15
2018-02-27T00:41:18.231Z,6.55
2018-02-27T00:42:21.520Z,6.15
2018-02-27T00:43:24.047Z,6.43
2018-02-27T00:44:26.570Z,6.15
2018-02-27T00:45:29.137Z,6.62
2018-02-27T00:46:31.652Z,6.25
2018-02-27T00:47:34.177Z,5.90
2018-02-27T00:48:36.698Z,5.95
2018-02-27T00:49:39.986Z,6.12
2018-02-27T00:50:43.332Z,6.85
2018-02-27T00:51:45.862Z,5.80
2018-02-27T00:52:48.390Z,5.50
2018-02-27T00:53:50.911Z,6.25
2018-02-27T00:54:53.432Z,5.82
2018-02-27T00:55:56.741Z,6.05
2018-02-27T00:56:59.265Z,6.40
2018-02-27T00:58:01.821Z,5.82
2018-02-27T00:59:04.339Z,6.40
2018-02-27T01:00:06.867Z,5.40
2018-02-27T01:01:09.394Z,5.20
2018-02-27T01:02:11.938Z,6.15
2018-02-27T01:03:14.544Z,5.82
2018-02-27T01:04:17.057Z,6.28
2018-02-27T01:05:20.355Z,6.05
2018-02-27T01:06:22.884Z,6.07
2018-02-27T01:07:25.402Z,6.03
2018-02-27T01:08:27.965Z,6.72
2018-02-27T01:09:30.495Z,5.87
2018-02-27T01:10:33.780Z,5.55
2018-02-27T01:11:37.078Z,5.10
2018-02-27T01:12:39.609Z,6.15
2018-02-27T01:13:42.161Z,5.62
2018-02-27T01:14:44.682Z,5.90
2018-02-27T01:15:47.225Z,6.60
2018-02-27T01:16:50.552Z,5.75
2018-02-27T01:17:53.065Z,6.35
2018-02-27T01:18:55.590Z,6.22
2018-02-27T01:19:58.109Z,5.20
2018-02-27T01:21:01.409Z,6.07
2018-02-27T01:22:03.976Z,5.72
2018-02-27T01:23:06.495Z,6.72
2018-02-27T01:24:09.021Z,5.65
2018-02-27T01:25:11.553Z,5.40
2018-02-27T01:26:14.853Z,5.78
2018-02-27T01:27:17.485Z,5.40
2018-02-27T01:28:20.021Z,5.65
2018-02-27T01:29:22.553Z,5.18
2018-02-27T01:30:25.069Z,5.78
2018-02-27T01:31:27.593Z,6.03
2018-02-27T01:32:30.141Z,6.00
2018-02-27T01:33:33.420Z,5.60
2018-02-27T01:34:36.709Z,5.82
2018-02-27T01:35:39.993Z,5.62
2018-02-27T01:36:43.897Z,5.62
2018-02-27T01:37:47.190Z,6.32
2018-02-27T01:38:49.713Z,5.90
2018-02-27T01:39:52.244Z,6.30
2018-02-27T01:40:54.765Z,5.60
2018-02-27T01:41:58.117Z,5.68
2018-02-27T01:43:00.635Z,5.82
2018-02-27T01:44:03.156Z,6.20
2018-02-27T01:45:05.674Z,5.90
2018-02-27T01:46:08.197Z,6.10
2018-02-27T01:47:10.758Z,5.95
2018-02-27T01:48:13.298Z,6.60
2018-02-27T01:49:15.831Z,6.78
2018-02-27T01:50:18.402Z,5.40
2018-02-27T01:51:20.902Z,5.45
2018-02-27T01:52:23.456Z,5.10
2018-02-27T01:53:25.973Z,5.78
2018-02-27T01:54:29.262Z,6.40
2018-02-27T01:55:31.793Z,5.75
2018-02-27T01:56:34.373Z,5.30
2018-02-27T01:57:36.890Z,6.22
2018-02-27T01:58:39.421Z,5.70
2018-02-27T01:59:42.709Z,5.40
2018-02-27T02:00:45.991Z,5.53
2018-02-27T02:01:49.339Z,6.30
2018-02-27T02:02:51.861Z,5.82
2018-02-27T02:03:54.382Z,5.62
2018-02-27T02:04:56.902Z,6.70
2018-02-27T02:05:59.435Z,5.60
2018-02-27T02:07:01.988Z,6.07
2018-02-27T02:08:04.503Z,6.20
2018-02-27T02:09:07.081Z,5.90
2018-02-27T02:10:09.611Z,5.28
2018-02-27T02:11:12.906Z,5.80
2018-02-27T02:12:15.430Z,5.87
2018-02-27T02:13:17.957Z,5.95
2018-02-27T02:14:20.527Z,5.30
2018-02-27T02:15:23.048Z,5.70
2018-02-27T02:16:25.575Z,6.12
2018-02-27T02:17:28.121Z,5.47
2018-02-27T02:18:30.645Z,6.47
2018-02-27T02:19:33.201Z,6.03
2018-02-27T02:20:35.721Z,5.57
2018-02-27T02:21:38.256Z,5.62
2018-02-27T02:22:41.541Z,5.85
2018-02-27T02:23:44.881Z,5.37
2018-02-27T02:24:47.396Z,5.20
2018-02-27T02:25:50.682Z,6.75
2018-02-27T02:26:53.972Z,5.80
2018-02-27T02:27:56.498Z,6.90
2018-02-27T02:28:59.065Z,6.37
2018-02-27T02:30:01.583Z,6.90
2018-02-27T02:31:04.102Z,5.90
2018-02-27T02:32:06.627Z,6.65
2018-02-27T02:33:09.153Z,6.30
2018-02-27T02:34:11.721Z,5.57
2018-02-27T02:35:15.021Z,5.72
2018-02-27T02:36:17.552Z,5.60
2018-02-27T02:37:20.068Z,6.10
2018-02-27T02:38:22.589Z,5.70
2018-02-27T02:39:25.169Z,6.60
2018-02-27T02:40:28.459Z,5.80
2018-02-27T02:41:30.984Z,6.30
2018-02-27T02:42:33.498Z,6.25
2018-02-27T02:43:36.017Z,6.10
2018-02-27T02:44:38.579Z,5.40
2018-02-27T02:45:41.109Z,5.57
2018-02-27T02:46:43.645Z,5.55
2018-02-27T02:47:46.934Z,5.90
2018-02-27T02:48:50.225Z,6.22
2018-02-27T02:49:53.545Z,6.10
2018-02-27T02:50:56.074Z,6.07
2018-02-27T02:51:59.361Z,6.25
2018-02-27T02:53:01.889Z,6.12
2018-02-27T02:54:04.409Z,5.03
2018-02-27T02:55:06.975Z,5.65
2018-02-27T02:56:09.501Z,5.70
2018-02-27T02:57:12.027Z,6.43
2018-02-27T02:58:14.561Z,6.30
2018-02-27T02:59:17.126Z,5.68
2018-02-27T03:00:19.654Z,6.05
2018-02-27T03:01:22.335Z,5.47
2018-02-27T03:02:24.872Z,6.60
2018-02-27T03:03:27.447Z,5.93
2018-02-27T03:04:29.971Z,5.78
2018-02-27T03:05:32.516Z,5.10
2018-02-27T03:06:35.809Z,5.62
2018-02-27T03:07:38.381Z,6.62
2018-02-27T03:08:40.905Z,6.05
2018-02-27T03:09:43.437Z,6.10
2018-02-27T03:10:45.957Z,5.30
2018-02-27T03:11:49.285Z,6.00
2018-02-27T03:12:51.900Z,4.62
2018-02-27T03:13:54.434Z,5.55
2018-02-27T03:14:56.963Z,5.97
2018-02-27T03:15:59.481Z,5.97
2018-02-27T03:17:02.040Z,6.25
2018-02-27T03:18:04.564Z,6.18
2018-02-27T03:19:07.085Z,5.70
2018-02-27T03:20:09.612Z,6.12
2018-02-27T03:21:12.147Z,6.00
2018-02-27T03:22:15.465Z,6.03
2018-02-27T03:23:17.998Z,5.95
2018-02-27T03:24:20.517Z,5.40
2018-02-27T03:25:23.197Z,6.18
2018-02-27T03:26:25.766Z,6.15
2018-02-27T03:27:28.324Z,6.12
2018-02-27T03:28:30.840Z,6.43
2018-02-27T03:29:33.390Z,6.95
2018-02-27T03:30:36.689Z,6.25
2018-02-27T03:31:39.252Z,5.78
2018-02-27T03:32:41.817Z,6.50
2018-02-27T03:33:45.110Z,6.35
2018-02-27T03:34:47.631Z,6.25
2018-02-27T03:35:50.150Z,5.75
2018-02-27T03:36:52.680Z,6.50
2018-02-27T03:37:55.245Z,5.75
2018-02-27T03:38:57.762Z,6.65
2018-02-27T03:40:00.285Z,6.85
2018-02-27T03:41:03.565Z,6.03
2018-02-27T03:42:06.861Z,5.93
2018-02-27T03:43:10.193Z,7.07
2018-02-27T03:44:12.709Z,6.65
2018-02-27T03:45:15.258Z,5.90
2018-02-27T03:46:17.782Z,6.45
2018-02-27T03:47:20.300Z,7.12
2018-02-27T03:48:23.638Z,7.10
2018-02-27T03:49:26.169Z,6.28
2018-02-27T03:50:28.735Z,7.28
2018-02-27T03:51:31.261Z,6.20
2018-02-27T03:52:33.796Z,6.07
2018-02-27T03:53:36.341Z,6.55
2018-02-27T03:54:38.859Z,6.07
2018-02-27T03:55:41.445Z,6.70
2018-02-27T03:56:43.962Z,5.75
2018-02-27T03:57:46.487Z,6.90
2018-02-27T03:58:49.772Z,6.75
2018-02-27T03:59:53.067Z,6.62
2018-02-27T04:00:55.621Z,6.93
2018-02-27T04:01:58.907Z,5.85
2018-02-27T04:03:02.215Z,6.47
2018-02-27T04:04:04.746Z,5.60
2018-02-27T04:05:08.032Z,5.90
2018-02-27T04:06:11.353Z,6.12
2018-02-27T04:07:13.907Z,6.12
2018-02-27T04:08:16.440Z,6.82
2018-02-27T04:09:19.743Z,5.70
2018-02-27T04:10:23.034Z,6.35
2018-02-27T04:11:25.801Z,5.12
2018-02-27T04:12:29.084Z,6.15
2018-02-27T04:13:32.362Z,6.30
2018-02-27T04:14:35.645Z,5.30
2018-02-27T04:15:38.944Z,5.53
2018-02-27T04:16:41.517Z,5.43
2018-02-27T04:17:44.050Z,5.90
2018-02-27T04:18:46.560Z,5.90
2018-02-27T04:19:49.083Z,6.20
2018-02-27T04:20:52.382Z,6.60
2018-02-27T04:21:55.713Z,5.40
2018-02-27T04:22:58.236Z,5.65
2018-02-27T04:24:00.809Z,5.75
2018-02-27T04:25:03.325Z,5.43
2018-02-27T04:26:05.842Z,5.68
2018-02-27T04:27:08.360Z,5.65
2018-02-27T04:28:10.876Z,5.80
2018-02-27T04:29:13.525Z,5.28
2018-02-27T04:30:16.821Z,5.90
2018-02-27T04:31:19.354Z,6.37
2018-02-27T04:32:21.884Z,5.97
2018-02-27T04:33:24.401Z,5.70
2018-02-27T04:34:27.726Z,5.47
2018-02-27T04:35:30.253Z,5.60
2018-02-27T04:36:33.539Z,6.68
2018-02-27T04:37:36.868Z,6.10
2018-02-27T04:38:39.390Z,5.90
2018-02-27T04:39:41.938Z,6.18
2018-02-27T04:40:44.501Z,6.50
2018-02-27T04:41:47.026Z,6.37
2018-02-27T04:42:49.560Z,6.22
2018-02-27T04:43:52.845Z,5.60
2018-02-27T04:44:56.135Z,5.85
2018-02-27T04:45:58.710Z,5.55
2018-02-27T04:47:01.231Z,6.22
2018-02-27T04:48:03.757Z,5.32
2018-02-27T04:49:06.281Z,5.72
2018-02-27T04:50:09.570Z,5.15
2018-02-27T04:51:12.894Z,6.20
2018-02-27T04:52:15.448Z,6.35
2018-02-27T04:53:17.982Z,6.20
2018-02-27T04:54:21.269Z,6.22
2018-02-27T04:55:24.565Z,6.10
2018-02-27T04:56:27.910Z,5.85
2018-02-27T04:57:30.537Z,6.53
2018-02-27T04:58:33.093Z,6.55
2018-02-27T04:59:35.617Z,6.57
2018-02-27T05:00:38.134Z,6.82
2018-02-27T05:01:40.706Z,5.93
2018-02-27T05:02:43.234Z,7.25
2018-02-27T05:03:46.566Z,6.40
2018-02-27T05:04:49.087Z,6.50
2018-02-27T05:05:52.381Z,8.52
2018-02-27T05:06:55.673Z,7.28
2018-02-27T05:07:58.222Z,5.75
2018-02-27T05:09:01.509Z,6.90
2018-02-27T05:10:04.806Z,5.97
2018-02-27T05:11:07.337Z,6.28
2018-02-27T05:12:09.870Z,6.37
2018-02-27T05:13:12.438Z,7.65
2018-02-27T05:14:14.975Z,6.90
2018-02-27T05:15:17.498Z,7.00
2018-02-27T05:16:20.029Z,7.60
2018-02-27T05:17:22.566Z,7.03
2018-02-27T05:18:25.897Z,7.60
2018-02-27T05:19:28.436Z,7.90
2018-02-27T05:20:30.965Z,7.45
2018-02-27T05:21:34.258Z,9.60
2018-02-27T05:22:37.556Z,10.45
2018-02-27T05:23:40.134Z,10.75
2018-02-27T05:24:42.658Z,14.18
2018-02-27T05:25:45.187Z,14.80
2018-02-27T05:26:47.715Z,12.80
2018-02-27T05:27:51.006Z,14.38
2018-02-27T05:28:53.574Z,12.70
2018-02-27T05:29:56.108Z,12.40
2018-02-27T05:30:58.674Z,12.68
2018-02-27T05:32:01.192Z,13.02
2018-02-27T05:33:03.720Z,13.48
2018-02-27T05:34:07.013Z,13.15
2018-02-27T05:35:10.337Z,11.05
2018-02-27T05:36:12.873Z,9.77
2018-02-27T05:37:15.393Z,9.50
2018-02-27T05:38:17.919Z,9.70
2018-02-27T05:39:20.478Z,10.20
2018-02-27T05:40:23.005Z,8.80
2018-02-27T05:41:25.537Z,9.35
2018-02-27T05:42:28.065Z,9.32
2018-02-27T05:43:30.677Z,8.13
2018-02-27T05:44:33.205Z,7.82
2018-02-27T05:45:35.730Z,8.02
2018-02-27T05:46:39.051Z,8.43
2018-02-27T05:47:41.605Z,9.45
2018-02-27T05:48:44.897Z,8.23
2018-02-27T05:49:47.459Z,7.70
2018-02-27T05:50:50.752Z,11.02
2018-02-27T05:51:53.282Z,15.10
2018-02-27T05:52:55.801Z,9.85
2018-02-27T05:53:58.317Z,9.23
2018-02-27T05:55:00.899Z,11.60
2018-02-27T05:56:04.206Z,10.13
2018-02-27T05:57:06.728Z,12.27
2018-02-27T05:58:09.276Z,14.20
2018-02-27T05:59:11.833Z,8.90
2018-02-27T06:00:14.406Z,22.75
2018-02-27T06:01:16.952Z,20.33
2018-02-27T06:02:19.477Z,17.77
2018-02-27T06:03:22.770Z,15.25
2018-02-27T06:04:26.065Z,15.70
2018-02-27T06:05:28.637Z,14.23
2018-02-27T06:06:31.162Z,16.77
2018-02-27T06:07:33.695Z,28.25
2018-02-27T06:08:36.266Z,32.80
2018-02-27T06:09:38.800Z,33.10
2018-02-27T06:10:41.365Z,38.47
2018-02-27T06:11:43.955Z,44.28
2018-02-27T06:12:46.487Z,51.65
2018-02-27T06:13:49.789Z,52.03
2018-02-27T06:14:52.317Z,46.37
2018-02-27T06:15:54.849Z,39.08
2018-02-27T06:16:57.423Z,36.58
2018-02-27T06:17:59.981Z,33.80
2018-02-27T06:19:02.513Z,37.85
2018-02-27T06:20:05.053Z,31.25
2018-02-27T06:21:08.358Z,22.95
2018-02-27T06:22:10.926Z,32.22
2018-02-27T06:23:13.480Z,20.02
2018-02-27T06:24:16.815Z,14.95
2018-02-27T06:25:19.350Z,11.12
2018-02-27T06:26:21.881Z,9.52
2018-02-27T06:27:24.409Z,8.80
2018-02-27T06:28:26.941Z,9.60
2018-02-27T06:29:29.492Z,9.45
2018-02-27T06:30:32.825Z,9.25
2018-02-27T06:31:35.353Z,13.02
2018-02-27T06:32:38.645Z,20.70
2018-02-27T06:33:41.181Z,17.92
2018-02-27T06:34:43.737Z,20.55
2018-02-27T06:35:46.262Z,21.42
2018-02-27T06:36:48.798Z,19.10
2018-02-27T06:37:52.093Z,14.68
2018-02-27T06:38:54.682Z,15.02
2018-02-27T06:39:57.206Z,11.88
2018-02-27T06:41:00.501Z,15.50
2018-02-27T06:42:03.802Z,11.93
2018-02-27T06:43:06.328Z,13.15
2018-02-27T06:44:08.880Z,12.13
2018-02-27T06:45:11.439Z,10.65
2018-02-27T06:46:13.972Z,12.05
2018-02-27T06:47:16.520Z,9.40
2018-02-27T06:48:19.058Z,10.05
2018-02-27T06:49:21.601Z,11.12
2018-02-27T06:50:24.168Z,10.23
2018-02-27T06:51:26.706Z,10.05
2018-02-27T06:52:30.003Z,9.77
2018-02-27T06:53:32.533Z,10.82
2018-02-27T06:54:35.831Z,9.45
2018-02-27T06:55:38.419Z,10.60
2018-02-27T06:56:40.944Z,10.57
2018-02-27T06:57:44.243Z,11.75
2018-02-27T06:58:46.771Z,12.43
2018-02-27T06:59:49.290Z,10.23
2018-02-27T07:00:51.857Z,9.57
2018-02-27T07:01:55.144Z,13.45
2018-02-27T07:02:57.680Z,12.15
2018-02-27T07:04:00.972Z,12.65
2018-02-27T07:05:03.496Z,13.02
2018-02-27T07:06:06.053Z,11.35
2018-02-27T07:07:08.580Z,11.15
2018-02-27T07:08:11.101Z,12.43
2018-02-27T07:09:13.629Z,10.70
2018-02-27T07:10:16.223Z,10.15
2018-02-27T07:11:18.753Z,9.32
2018-02-27T07:12:21.273Z,8.43
2018-02-27T07:13:23.793Z,11.27
2018-02-27T07:14:26.313Z,12.15
2018-02-27T07:15:29.602Z,10.70
2018-02-27T07:16:32.942Z,11.60
2018-02-27T07:17:35.505Z,11.75
2018-02-27T07:18:38.034Z,10.43
2018-02-27T07:19:40.573Z,11.18
2018-02-27T07:20:43.109Z,10.00
2018-02-27T07:21:45.670Z,9.73
2018-02-27T07:22:48.200Z,9.57
2018-02-27T07:23:50.735Z,10.10
2018-02-27T07:24:53.274Z,8.40
2018-02-27T07:25:55.793Z,8.85
2018-02-27T07:26:58.356Z,9.00
2018-02-27T07:28:01.636Z,8.40
2018-02-27T07:29:04.925Z,8.98
2018-02-27T07:30:08.274Z,9.70
2018-02-27T07:31:10.793Z,10.30
2018-02-27T07:32:13.343Z,10.50
2018-02-27T07:33:16.633Z,10.32
2018-02-27T07:34:19.161Z,13.30
2018-02-27T07:35:21.746Z,11.90
2018-02-27T07:36:24.274Z,10.50
2018-02-27T07:37:26.796Z,12.10
2018-02-27T07:38:29.321Z,11.12
2018-02-27T07:39:31.844Z,10.50
2018-02-27T07:40:34.388Z,9.75
2018-02-27T07:41:37.682Z,8.65
2018-02-27T07:42:40.228Z,9.30
2018-02-27T07:43:43.558Z,8.35
2018-02-27T07:44:46.123Z,9.13
2018-02-27T07:45:48.650Z,8.48
2018-02-27T07:46:51.973Z,9.07
2018-02-27T07:47:54.492Z,7.78
2018-02-27T07:48:57.782Z,7.80
2018-02-27T07:50:01.122Z,8.57
2018-02-27T07:51:03.652Z,7.40
2018-02-27T07:52:06.168Z,9.32
2018-02-27T07:53:08.690Z,9.48
2018-02-27T07:54:11.214Z,8.88
2018-02-27T07:55:13.776Z,9.05
2018-02-27T07:56:16.298Z,6.03
2018-02-27T07:57:18.861Z,7.25
2018-02-27T07:58:21.383Z,7.40
2018-02-27T07:59:23.905Z,7.60
2018-02-27T08:00:26.459Z,6.78
2018-02-27T08:01:28.979Z,6.97
2018-02-27T08:02:31.633Z,6.65
2018-02-27T08:03:34.156Z,7.37
2018-02-27T08:04:36.681Z,8.15
2018-02-27T08:05:39.251Z,7.20
2018-02-27T08:06:41.776Z,7.12
2018-02-27T08:07:44.336Z,6.70
2018-02-27T08:08:46.890Z,6.47
2018-02-27T08:09:49.406Z,6.82
2018-02-27T08:10:51.918Z,6.80
2018-02-27T08:11:54.433Z,6.43
2018-02-27T08:12:56.957Z,6.22
2018-02-27T08:13:59.525Z,5.80
2018-02-27T08:15:02.052Z,6.45
2018-02-27T08:16:05.368Z,6.53
2018-02-27T08:17:07.897Z,6.07
2018-02-27T08:18:11.190Z,6.15
2018-02-27T08:19:14.525Z,6.78
2018-02-27T08:20:17.046Z,7.07
2018-02-27T08:21:20.347Z,6.95
2018-02-27T08:22:22.873Z,5.62
2018-02-27T08:23:25.403Z,6.80
2018-02-27T08:24:27.977Z,7.20
2018-02-27T08:25:30.510Z,6.70
2018-02-27T08:26:33.046Z,6.50
2018-02-27T08:27:36.337Z,5.95
2018-02-27T08:28:39.635Z,6.30
2018-02-27T08:29:42.249Z,5.15
2018-02-27T08:30:44.773Z,5.93
2018-02-27T08:31:47.298Z,5.40
2018-02-27T08:32:49.816Z,5.82
2018-02-27T08:33:52.349Z,5.87
2018-02-27T08:34:55.678Z,6.25
2018-02-27T08:35:58.194Z,6.15
2018-02-27T08:37:00.711Z,5.82
2018-02-27T08:38:03.233Z,5.57
2018-02-27T08:39:06.534Z,6.30
2018-02-27T08:40:09.098Z,5.85
2018-02-27T08:41:11.613Z,5.35
2018-02-27T08:42:14.143Z,5.65
2018-02-27T08:43:16.657Z,6.15
2018-02-27T08:44:19.169Z,5.75
2018-02-27T08:45:21.744Z,5.55
2018-02-27T08:46:24.261Z,5.12
2018-02-27T08:47:26.774Z,5.82
2018-02-27T08:48:29.289Z,5.53
2018-02-27T08:49:31.821Z,4.97
2018-02-27T08:50:34.370Z,5.85
2018-02-27T08:51:36.882Z,5.55
2018-02-27T08:52:39.427Z,4.85
2018-02-27T08:53:41.961Z,5.70
2018-02-27T08:54:44.490Z,4.55
2018-02-27T08:55:47.069Z,5.53
2018-02-27T08:56:50.362Z,5.28
2018-02-27T08:57:53.648Z,5.12
2018-02-27T08:58:56.937Z,4.45
2018-02-27T08:59:59.470Z,4.90
2018-02-27T09:01:02.047Z,5.32
2018-02-27T09:02:04.566Z,5.47
2018-02-27T09:03:07.084Z,4.95
2018-02-27T09:04:10.383Z,5.07
2018-02-27T09:05:13.673Z,4.93
2018-02-27T09:06:16.250Z,5.07
2018-02-27T09:07:18.781Z,5.30
2018-02-27T09:08:21.298Z,4.65
2018-02-27T09:09:23.834Z,5.60
2018-02-27T09:10:27.124Z,4.87
2018-02-27T09:11:29.735Z,5.75
2018-02-27T09:12:32.273Z,4.95
2018-02-27T09:13:34.796Z,4.80
2018-02-27T09:14:37.366Z,5.60
2018-02-27T09:15:39.854Z,5.28
2018-02-27T09:16:42.406Z,6.22
2018-02-27T09:17:45.730Z,4.78
2018-02-27T09:18:48.250Z,5.43
2018-02-27T09:19:51.548Z,5.37
2018-02-27T09:20:54.888Z,5.50
2018-02-27T09:21:57.450Z,5.30
2018-02-27T09:22:59.975Z,4.90
2018-02-27T09:24:02.493Z,4.47
2018-02-27T09:25:05.013Z,4.95
2018-02-27T09:26:07.540Z,5.57
2018-02-27T09:27:11.240Z,4.85
2018-02-27T09:28:13.753Z,4.80
2018-02-27T09:29:16.279Z,4.97
2018-02-27T09:30:19.603Z,4.40
2018-02-27T09:31:22.141Z,5.65
2018-02-27T09:32:24.666Z,4.80
2018-02-27T09:33:27.203Z,4.47
2018-02-27T09:34:29.742Z,5.07
2018-02-27T09:35:32.370Z,5.00
2018-02-27T09:36:34.866Z,4.32
2018-02-27T09:37:38.150Z,4.65
2018-02-27T09:38:41.474Z,5.22
2018-02-27T09:39:44.003Z,5.00
2018-02-27T09:40:47.337Z,5.40
2018-02-27T09:41:49.857Z,4.87
2018-02-27T09:42:53.173Z,5.75
2018-02-27T09:43:55.693Z,4.87
2018-02-27T09:44:58.982Z,5.55
2018-02-27T09:46:02.290Z,4.80
2018-02-27T09:47:04.843Z,6.00
2018-02-27T09:48:07.381Z,5.85
2018-02-27T09:49:09.893Z,5.07
2018-02-27T09:50:12.400Z,4.90
2018-02-27T09:51:14.913Z,5.40
2018-02-27T09:52:17.462Z,5.40
2018-02-27T09:53:20.734Z,5.55
2018-02-27T09:54:23.249Z,5.53
2018-02-27T09:55:25.762Z,6.05
2018-02-27T09:56:28.348Z,5.70
2018-02-27T09:57:30.844Z,5.80
2018-02-27T09:58:33.378Z,6.30
2018-02-27T09:59:36.702Z,5.55
2018-02-27T10:00:39.266Z,6.22
2018-02-27T10:01:41.838Z,6.15
2018-02-27T10:02:44.329Z,5.28
2018-02-27T10:03:46.874Z,6.60
2018-02-27T10:04:49.393Z,5.70
2018-02-27T10:05:52.719Z,5.78
2018-02-27T10:06:55.256Z,5.68
2018-02-27T10:07:57.765Z,7.10
2018-02-27T10:09:00.289Z,5.30
2018-02-27T10:10:02.798Z,5.80
2018-02-27T10:11:05.408Z,6.07
2018-02-27T10:12:07.876Z,5.70
2018-02-27T10:13:11.154Z,6.30
2018-02-27T10:14:14.469Z,5.75
2018-02-27T10:15:16.980Z,5.10
2018-02-27T10:16:19.498Z,5.95
2018-02-27T10:17:22.029Z,5.43
2018-02-27T10:18:25.346Z,5.87
2018-02-27T10:19:27.863Z,6.40
2018-02-27T10:20:30.398Z,6.15
2018-02-27T10:21:32.917Z,4.97
2018-02-27T10:22:36.238Z,5.12
2018-02-27T10:23:38.756Z,5.05
2018-02-27T10:24:42.094Z,5.15
2018-02-27T10:25:44.626Z,4.62
2018-02-27T10:26:47.910Z,5.50
2018-02-27T10:27:50.425Z,4.70
2018-02-27T10:28:52.942Z,5.50
2018-02-27T10:29:56.260Z,4.80
2018-02-27T10:30:58.790Z,5.55
2018-02-27T10:32:02.077Z,5.32
2018-02-27T10:33:04.601Z,5.43
2018-02-27T10:34:07.122Z,5.10
2018-02-27T10:35:09.676Z,5.05
2018-02-27T10:36:12.192Z,4.90
2018-02-27T10:37:14.719Z,5.18
2018-02-27T10:38:17.238Z,4.62
2018-02-27T10:39:19.762Z,4.55
2018-02-27T10:40:22.338Z,4.70
2018-02-27T10:41:24.870Z,4.78
2018-02-27T10:42:27.391Z,3.92
2018-02-27T10:43:29.916Z,3.92
2018-02-27T10:44:32.431Z,4.50
2018-02-27T10:45:34.997Z,4.78
2018-02-27T10:46:37.506Z,4.87
2018-02-27T10:47:40.028Z,4.82
2018-02-27T10:48:42.557Z,4.43
2018-02-27T10:49:45.126Z,4.85
2018-02-27T10:50:47.646Z,5.03
2018-02-27T10:51:50.938Z,4.45
2018-02-27T10:52:54.232Z,4.35
2018-02-27T10:53:56.758Z,4.20
2018-02-27T10:54:59.322Z,6.37
2018-02-27T10:56:01.886Z,4.50
2018-02-27T10:57:04.406Z,4.78
2018-02-27T10:58:06.937Z,4.00
2018-02-27T10:59:09.457Z,4.75
2018-02-27T11:00:12.018Z,4.22
2018-02-27T11:01:20.275Z,4.00
2018-02-27T11:02:23.557Z,4.45
2018-02-27T11:03:26.079Z,4.05
2018-02-27T11:04:28.593Z,4.15
2018-02-27T11:05:31.913Z,4.57
2018-02-27T11:06:34.453Z,4.10
2018-02-27T11:07:37.738Z,3.90
2018-02-27T11:08:41.022Z,4.85
2018-02-27T11:09:44.318Z,4.25
2018-02-27T11:10:46.881Z,4.30
2018-02-27T11:11:49.464Z,4.50
2018-02-27T11:12:52.002Z,4.28
2018-02-27T11:13:55.299Z,4.50
2018-02-27T11:14:57.823Z,4.25
2018-02-27T11:16:00.370Z,4.07
2018-02-27T11:17:02.888Z,4.50
2018-02-27T11:18:06.180Z,3.65
2018-02-27T11:19:08.693Z,4.12
2018-02-27T11:20:11.202Z,3.85
2018-02-27T11:21:14.534Z,4.45
2018-02-27T11:22:17.063Z,4.50
2018-02-27T11:23:19.586Z,3.90
2018-02-27T11:24:22.105Z,4.35
2018-02-27T11:25:24.630Z,3.62
2018-02-27T11:26:27.189Z,4.30
2018-02-27T11:27:29.705Z,3.75
2018-02-27T11:28:32.225Z,3.83
2018-02-27T11:29:34.745Z,3.95
2018-02-27T11:30:37.297Z,3.35
2018-02-27T11:31:39.808Z,4.07
2018-02-27T11:32:42.369Z,3.78
2018-02-27T11:33:44.894Z,3.60
2018-02-27T11:34:47.417Z,3.70
2018-02-27T11:35:49.950Z,3.42
2018-02-27T11:36:52.734Z,3.42
2018-02-27T11:37:55.262Z,3.28
2018-02-27T11:38:57.804Z,3.12
2018-02-27T11:40:01.089Z,3.72
2018-02-27T11:41:04.373Z,3.15
2018-02-27T11:42:07.665Z,3.05
2018-02-27T11:43:10.983Z,3.60
2018-02-27T11:44:14.273Z,3.33
2018-02-27T11:45:16.792Z,4.07
2018-02-27T11:46:20.071Z,3.67
2018-02-27T11:47:23.374Z,3.33
2018-02-27T11:48:25.889Z,3.25
2018-02-27T11:49:28.452Z,3.83
2018-02-27T11:50:30.966Z,3.20
2018-02-27T11:51:34.331Z,3.60
2018-02-27T11:52:37.639Z,3.35
2018-02-27T11:53:40.154Z,3.20
2018-02-27T11:54:42.701Z,3.25
2018-02-27T11:55:45.204Z,3.55
2018-02-27T11:56:47.721Z,3.60
2018-02-27T11:57:50.233Z,3.05
2018-02-27T11:58:52.778Z,3.15
2018-02-27T11:59:55.325Z,3.92
2018-02-27T12:00:57.838Z,3.62
2018-02-27T12:02:00.350Z,4.07
2018-02-27T12:03:02.866Z,3.53
2018-02-27T12:04:05.386Z,3.55
2018-02-27T12:05:07.940Z,3.08
2018-02-27T12:06:10.489Z,3.25
2018-02-27T12:07:13.784Z,2.85
2018-02-27T12:08:16.307Z,3.70
2018-02-27T12:09:18.821Z,3.25
2018-02-27T12:10:21.370Z,3.40
2018-02-27T12:11:24.649Z,2.95
2018-02-27T12:12:27.939Z,3.50
2018-02-27T12:13:30.467Z,2.95
2018-02-27T12:14:33.018Z,2.90
2018-02-27T12:15:35.582Z,3.15
2018-02-27T12:16:38.098Z,3.08
2018-02-27T12:17:41.394Z,3.22
2018-02-27T12:18:43.908Z,2.85
2018-02-27T12:19:46.430Z,3.47
2018-02-27T12:20:49.009Z,3.85
2018-02-27T12:21:51.530Z,3.75
2018-02-27T12:22:54.058Z,3.30
2018-02-27T12:23:56.577Z,3.53
2018-02-27T12:24:59.858Z,3.80
2018-02-27T12:26:03.189Z,2.87
2018-02-27T12:27:05.702Z,2.75
2018-02-27T12:28:08.224Z,3.30
2018-02-27T12:29:10.744Z,3.37
2018-02-27T12:30:14.035Z,2.92
2018-02-27T12:31:16.579Z,2.90
2018-02-27T12:32:19.101Z,3.30
2018-02-27T12:33:21.669Z,3.65
2018-02-27T12:34:24.191Z,3.28
2018-02-27T12:35:27.472Z,2.85
2018-02-27T12:36:30.761Z,3.10
2018-02-27T12:37:34.043Z,2.70
2018-02-27T12:38:37.366Z,3.00
2018-02-27T12:39:39.890Z,3.05
2018-02-27T12:40:43.175Z,2.83
2018-02-27T12:41:46.453Z,2.90
2018-02-27T12:42:49.737Z,2.78
2018-02-27T12:43:53.061Z,2.78
2018-02-27T12:44:55.604Z,2.40
2018-02-27T12:45:58.885Z,2.20
2018-02-27T12:47:02.167Z,2.35
2018-02-27T12:48:05.450Z,2.55
2018-02-27T12:49:08.780Z,2.70
2018-02-27T12:50:11.291Z,3.17
2018-02-27T12:51:14.595Z,2.30
2018-02-27T12:52:17.121Z,2.92
2018-02-27T12:53:19.638Z,2.92
2018-02-27T12:54:22.186Z,2.30
2018-02-27T12:55:25.502Z,2.60
2018-02-27T12:56:28.013Z,2.80
2018-02-27T12:57:31.314Z,2.75
2018-02-27T12:58:34.601Z,3.00
2018-02-27T12:59:37.890Z,2.40
2018-02-27T13:00:40.438Z,2.58
2018-02-27T13:01:43.713Z,3.00
2018-02-27T13:02:46.241Z,2.70
2018-02-27T13:03:48.769Z,2.40
2018-02-27T13:04:52.108Z,2.28
2018-02-27T13:05:54.645Z,2.65
2018-02-27T13:06:57.161Z,2.72
2018-02-27T13:07:59.672Z,2.25
2018-02-27T13:09:02.189Z,2.37
2018-02-27T13:10:04.739Z,2.35
2018-02-27T13:11:07.254Z,2.87
2018-02-27T13:12:09.771Z,2.55
2018-02-27T13:13:12.294Z,2.45
2018-02-27T13:14:14.817Z,2.37
2018-02-27T13:15:17.375Z,2.60
2018-02-27T13:16:19.884Z,2.00
2018-02-27T13:17:22.401Z,2.20
2018-02-27T13:18:24.932Z,2.05
2018-02-27T13:19:27.441Z,2.67
2018-02-27T13:20:29.986Z,2.75
2018-02-27T13:21:32.515Z,2.92
2018-02-27T13:22:35.037Z,2.90
2018-02-27T13:23:37.557Z,2.75
2018-02-27T13:24:40.116Z,2.90
2018-02-27T13:25:42.633Z,2.50
2018-02-27T13:26:45.741Z,2.50
2018-02-27T13:27:49.022Z,2.33
2018-02-27T13:28:52.305Z,2.50
2018-02-27T13:29:55.621Z,2.30
2018-02-27T13:30:58.171Z,2.30
2018-02-27T13:32:00.658Z,2.40
2018-02-27T13:33:03.171Z,2.50
2018-02-27T13:34:05.692Z,2.30
2018-02-27T13:35:08.257Z,2.62
2018-02-27T13:36:10.766Z,2.00
2018-02-27T13:37:13.284Z,2.25
2018-02-27T13:38:15.794Z,2.10
2018-02-27T13:39:18.325Z,2.10
2018-02-27T13:40:20.879Z,2.28
2018-02-27T13:41:23.393Z,2.05
2018-02-27T13:42:25.918Z,2.37
2018-02-27T13:43:28.430Z,1.90
2018-02-27T13:44:30.944Z,2.33
2018-02-27T13:45:33.514Z,2.37
2018-02-27T13:46:36.031Z,2.25
2018-02-27T13:47:39.317Z,2.03
2018-02-27T13:48:45.911Z,2.25
2018-02-27T13:49:45.902Z,2.20
2018-02-27T13:50:49.229Z,2.62
2018-02-27T13:51:51.744Z,2.05